createdAt,value
2018-12-11T00:01:04.226Z,81.01
2018-12-11T00:03:27.364Z,82.10
2018-12-11T00:05:50.476Z,81.66
2018-12-11T00:08:13.747Z,81.59
2018-12-11T00:10:36.922Z,81.25
2018-12-11T00:13:00.022Z,81.36
2018-12-11T00:15:23.166Z,81.65
2018-12-11T00:17:46.271Z,82.60
2018-12-11T00:20:09.473Z,82.00
2018-12-11T00:22:32.572Z,81.17
2018-12-11T00:24:55.659Z,81.60
2018-12-11T00:27:18.797Z,82.17
2018-12-11T00:29:41.962Z,81.54
2018-12-11T00:32:05.116Z,82.17
2018-12-11T00:34:28.230Z,82.44
2018-12-11T00:36:51.348Z,82.44
2018-12-11T00:39:14.508Z,82.21
2018-12-11T00:41:37.658Z,81.73
2018-12-11T00:44:00.791Z,82.24
2018-12-11T00:46:23.932Z,81.00
2018-12-11T00:48:47.089Z,81.66
2018-12-11T00:51:10.186Z,81.47
2018-12-11T00:53:33.312Z,82.09
2018-12-11T00:55:56.412Z,82.13
2018-12-11T00:58:19.569Z,82.89
2018-12-11T01:00:42.690Z,82.70
2018-12-11T02:32:46.776Z,82.22
2018-12-11T02:35:09.906Z,81.95
2018-12-11T02:37:33.034Z,82.33
2018-12-11T02:39:56.182Z,82.40
2018-12-11T02:42:19.385Z,82.07
2018-12-11T02:44:42.546Z,82.22
2018-12-11T02:47:05.679Z,81.84
2018-12-11T02:49:28.812Z,82.61
2018-12-11T02:51:51.929Z,81.31
2018-12-11T03:08:11.173Z,80.97
2018-12-11T03:10:34.317Z,80.62
2018-12-11T03:12:57.439Z,80.20
2018-12-11T03:15:20.600Z,80.22
2018-12-11T03:17:43.713Z,80.34
2018-12-11T03:25:21.350Z,79.76
2018-12-11T03:27:44.482Z,80.26
2018-12-11T03:30:07.774Z,80.33
2018-12-11T03:32:30.903Z,80.02
2018-12-11T03:34:54.038Z,81.12
2018-12-11T03:37:17.154Z,80.57
2018-12-11T03:39:40.331Z,81.48
2018-12-11T03:42:03.550Z,80.75
2018-12-11T03:44:26.655Z,81.51
2018-12-11T03:46:49.815Z,81.37
2018-12-11T03:49:12.981Z,81.63
2018-12-11T03:51:36.128Z,82.48
2018-12-11T03:59:43.173Z,82.27
2018-12-11T04:02:06.302Z,81.38
2018-12-11T04:04:29.407Z,81.72
2018-12-11T04:06:52.578Z,81.79
2018-12-11T04:09:15.775Z,81.36
2018-12-11T04:11:39.314Z,82.26
2018-12-11T04:14:02.816Z,82.30
2018-12-11T04:16:25.930Z,82.14
2018-12-11T04:18:49.038Z,82.06
2018-12-11T04:21:12.189Z,80.58
2018-12-11T04:23:35.330Z,80.81
2018-12-11T04:25:58.446Z,80.66
2018-12-11T04:28:21.590Z,81.52
2018-12-11T04:30:44.864Z,80.73
2018-12-11T04:33:08.010Z,80.29
2018-12-11T04:35:31.109Z,81.18
2018-12-11T04:37:54.243Z,81.50
2018-12-11T04:40:17.358Z,81.55
2018-12-11T04:42:40.557Z,81.41
2018-12-11T04:45:04.359Z,82.19
2018-12-11T04:47:27.458Z,81.09
2018-12-11T04:49:50.694Z,81.93
2018-12-11T04:52:13.793Z,80.89
2018-12-11T04:54:37.000Z,81.81
2018-12-11T04:57:00.148Z,81.98
2018-12-11T04:59:23.257Z,80.85
2018-12-11T05:01:46.435Z,80.65
2018-12-11T05:04:09.572Z,80.89
2018-12-11T05:06:33.497Z,80.65
2018-12-11T05:08:56.722Z,81.72
2018-12-11T05:11:19.879Z,81.29
2018-12-11T05:13:42.988Z,80.67
2018-12-11T05:16:06.103Z,81.68
2018-12-11T05:18:29.346Z,82.46
2018-12-11T05:20:52.457Z,81.52
2018-12-11T05:23:15.586Z,81.93
2018-12-11T05:25:38.694Z,82.17
2018-12-11T05:28:01.807Z,81.90
2018-12-11T05:30:24.911Z,81.42
2018-12-11T05:32:48.021Z,81.79
2018-12-11T05:35:11.158Z,81.69
2018-12-11T05:37:34.328Z,81.78
2018-12-11T05:39:57.454Z,80.70
2018-12-11T05:42:20.613Z,81.51
2018-12-11T05:44:43.729Z,80.82
2018-12-11T05:47:06.851Z,80.81
2018-12-11T05:49:30.019Z,79.63
2018-12-11T05:51:53.139Z,80.20
2018-12-11T05:54:16.260Z,80.87
2018-12-11T05:56:39.398Z,79.24
2018-12-11T05:59:02.513Z,79.97
2018-12-11T06:01:25.650Z,81.37
2018-12-11T06:03:48.745Z,81.41
2018-12-11T06:06:11.961Z,82.49
2018-12-11T06:08:35.089Z,81.28
2018-12-11T06:10:58.212Z,81.15
2018-12-11T06:13:21.338Z,81.19
2018-12-11T06:15:44.515Z,80.97
2018-12-11T06:18:07.632Z,81.10
2018-12-11T06:20:30.753Z,80.11
2018-12-11T06:22:54.168Z,80.53
2018-12-11T06:25:17.277Z,80.65
2018-12-11T06:27:40.384Z,80.25
2018-12-11T06:30:04.769Z,80.44
2018-12-11T06:32:27.915Z,81.07
2018-12-11T06:34:51.380Z,81.97
2018-12-11T06:37:14.505Z,81.74
2018-12-11T06:39:37.618Z,81.58
2018-12-11T06:42:00.751Z,82.05
2018-12-11T06:44:23.876Z,81.85
2018-12-11T06:46:47.259Z,81.41
2018-12-11T06:49:10.461Z,82.07
2018-12-11T06:51:33.572Z,81.86
2018-12-11T06:53:56.971Z,82.58
2018-12-11T06:56:20.084Z,82.11
2018-12-11T06:58:43.190Z,81.63
2018-12-11T07:01:06.603Z,81.92
2018-12-11T07:03:29.723Z,79.99
2018-12-11T07:05:52.855Z,81.00
2018-12-11T07:08:17.071Z,81.37
2018-12-11T07:10:40.188Z,80.81
2018-12-11T07:13:03.311Z,81.49
2018-12-11T07:15:26.429Z,81.08
2018-12-11T07:17:49.570Z,81.85
2018-12-11T07:20:12.768Z,81.57
2018-12-11T07:22:35.882Z,81.20
2018-12-11T07:24:59.018Z,81.84
2018-12-11T07:27:22.126Z,81.25
2018-12-11T07:29:46.113Z,81.82
2018-12-11T07:32:09.219Z,81.89
2018-12-11T07:34:32.328Z,82.75
2018-12-11T07:36:55.457Z,82.44
2018-12-11T07:39:18.580Z,81.38
2018-12-11T07:41:41.734Z,82.06
2018-12-11T07:44:04.846Z,81.16
2018-12-11T07:46:28.003Z,81.20
2018-12-11T07:48:51.130Z,81.96
2018-12-11T07:51:14.277Z,81.16
2018-12-11T07:53:37.405Z,80.55
2018-12-11T07:56:00.534Z,81.15
2018-12-11T07:58:23.795Z,80.64
2018-12-11T08:00:46.918Z,80.88
2018-12-11T08:03:10.041Z,80.63
2018-12-11T08:05:33.240Z,80.54
2018-12-11T08:07:56.361Z,80.15
2018-12-11T08:10:19.459Z,79.89
2018-12-11T08:12:42.602Z,80.80
2018-12-11T08:15:05.994Z,80.01
2018-12-11T08:17:29.451Z,78.64
2018-12-11T08:19:52.571Z,79.17
2018-12-11T08:22:15.710Z,76.98
2018-12-11T08:24:38.846Z,79.01
2018-12-11T08:27:01.957Z,79.66
2018-12-11T08:29:26.826Z,78.05
2018-12-11T08:31:49.927Z,78.15
2018-12-11T08:34:13.026Z,77.91
2018-12-11T08:36:36.158Z,78.90
2018-12-11T08:38:59.284Z,78.96
2018-12-11T08:41:22.396Z,78.64
2018-12-11T08:43:45.545Z,77.96
2018-12-11T08:46:08.648Z,76.96
2018-12-11T08:48:32.173Z,76.35
2018-12-11T08:50:55.344Z,76.98
2018-12-11T08:53:18.465Z,77.08
2018-12-11T08:55:41.641Z,77.06
2018-12-11T08:58:04.761Z,75.91
2018-12-11T09:00:28.238Z,75.08
2018-12-11T09:02:51.352Z,75.50
2018-12-11T09:05:14.458Z,73.65
2018-12-11T09:07:37.593Z,75.00
2018-12-11T09:10:00.749Z,75.31
2018-12-11T09:12:24.144Z,73.26
2018-12-11T09:14:47.238Z,71.78
2018-12-11T09:17:10.606Z,73.30
2018-12-11T09:19:33.905Z,73.49
2018-12-11T09:21:57.144Z,72.12
2018-12-11T09:24:20.552Z,72.87
2018-12-11T09:26:43.661Z,72.55
2018-12-11T09:29:06.870Z,72.35
2018-12-11T09:31:29.997Z,71.95
2018-12-11T09:33:53.134Z,70.52
2018-12-11T09:36:16.290Z,71.78
2018-12-11T09:38:39.401Z,72.23
2018-12-11T09:41:02.561Z,72.80
2018-12-11T09:43:25.763Z,71.41
2018-12-11T09:45:48.922Z,70.89
2018-12-11T09:48:12.054Z,70.78
2018-12-11T09:50:35.204Z,69.58
2018-12-11T09:52:58.330Z,69.12
2018-12-11T09:55:21.449Z,69.89
2018-12-11T09:57:44.571Z,71.45
2018-12-11T10:00:08.295Z,71.97
2018-12-11T10:02:31.413Z,70.95
2018-12-11T10:04:54.561Z,70.55
2018-12-11T10:07:17.707Z,70.87
2018-12-11T10:09:40.840Z,71.05
2018-12-11T10:12:04.059Z,71.78
2018-12-11T10:14:27.166Z,73.31
2018-12-11T10:16:50.316Z,71.62
2018-12-11T10:19:13.486Z,71.57
2018-12-11T10:21:36.594Z,72.12
2018-12-11T10:23:59.812Z,72.34
2018-12-11T10:26:22.942Z,68.81
2018-12-11T10:28:46.110Z,69.72
2018-12-11T10:31:09.287Z,68.78
2018-12-11T10:33:32.401Z,69.79
2018-12-11T10:35:55.532Z,70.19
2018-12-11T10:38:18.630Z,69.93
2018-12-11T10:40:41.744Z,70.73
2018-12-11T10:43:04.869Z,70.53
2018-12-11T10:45:27.986Z,70.33
2018-12-11T10:47:51.136Z,69.76
2018-12-11T10:50:14.230Z,70.77
2018-12-11T10:52:37.365Z,70.55
2018-12-11T10:55:00.507Z,71.03
2018-12-11T10:57:23.605Z,70.32
2018-12-11T10:59:46.760Z,70.96
2018-12-11T11:02:15.472Z,70.32
2018-12-11T11:04:38.658Z,70.87
2018-12-11T11:07:01.789Z,70.46
2018-12-11T11:09:24.911Z,70.11
2018-12-11T11:11:48.038Z,69.82
2018-12-11T11:14:11.144Z,68.66
2018-12-11T11:16:34.262Z,68.67
2018-12-11T11:18:57.380Z,69.76
2018-12-11T11:21:20.536Z,70.80
2018-12-11T11:23:43.701Z,68.64
2018-12-11T11:26:06.794Z,68.92
2018-12-11T11:28:29.917Z,70.55
2018-12-11T11:30:53.158Z,70.62
2018-12-11T11:33:16.353Z,70.48
2018-12-11T11:35:39.473Z,69.98
2018-12-11T11:38:02.654Z,69.73
2018-12-11T11:40:25.773Z,70.01
2018-12-11T11:42:48.950Z,70.51
2018-12-11T11:45:12.632Z,68.17
2018-12-11T11:47:35.871Z,68.07
2018-12-11T11:49:59.082Z,68.48
2018-12-11T11:52:22.317Z,67.31
2018-12-11T11:54:45.445Z,68.08
2018-12-11T11:57:08.555Z,69.72
2018-12-11T11:59:31.663Z,68.12
2018-12-11T12:01:54.963Z,68.32
2018-12-11T12:04:18.088Z,67.79
2018-12-11T12:06:41.265Z,66.90
2018-12-11T12:09:06.443Z,65.74
2018-12-11T12:11:29.538Z,66.56
2018-12-11T12:13:52.670Z,67.29
2018-12-11T12:16:15.820Z,67.95
2018-12-11T12:18:38.964Z,68.85
2018-12-11T12:21:02.103Z,67.16
2018-12-11T12:23:25.236Z,67.40
2018-12-11T12:25:48.499Z,69.17
2018-12-11T12:28:11.620Z,66.90
2018-12-11T12:30:35.187Z,66.96
2018-12-11T12:32:58.280Z,67.39
2018-12-11T12:35:21.405Z,67.86
2018-12-11T12:37:44.515Z,68.96
2018-12-11T12:40:07.771Z,67.54
2018-12-11T12:42:30.920Z,67.16
2018-12-11T12:44:54.032Z,68.06
2018-12-11T12:47:17.152Z,67.57
2018-12-11T12:49:40.289Z,68.81
2018-12-11T12:52:03.443Z,66.28
2018-12-11T12:54:26.577Z,66.89
2018-12-11T12:56:49.654Z,67.04
2018-12-11T12:59:12.804Z,65.70
2018-12-11T13:01:35.984Z,67.10
2018-12-11T13:03:59.101Z,66.44
2018-12-11T13:06:22.426Z,67.09
2018-12-11T13:08:45.599Z,66.19
2018-12-11T13:11:08.687Z,67.17
2018-12-11T13:13:31.844Z,65.45
2018-12-11T13:15:55.056Z,66.65
2018-12-11T13:18:18.179Z,67.17
2018-12-11T13:20:41.322Z,67.18
2018-12-11T13:23:04.437Z,67.77
2018-12-11T13:25:27.590Z,66.93
2018-12-11T13:27:50.711Z,65.70
2018-12-11T13:30:13.828Z,66.50
2018-12-11T13:32:36.967Z,65.30
2018-12-11T13:35:00.070Z,65.73
2018-12-11T13:37:24.088Z,66.50
2018-12-11T13:39:47.221Z,67.56
2018-12-11T13:42:10.427Z,67.50
2018-12-11T13:44:33.560Z,67.24
2018-12-11T13:46:56.824Z,67.42
2018-12-11T13:49:19.978Z,67.06
2018-12-11T13:51:43.114Z,66.53
2018-12-11T13:54:06.247Z,66.45
2018-12-11T13:56:29.403Z,66.01
2018-12-11T13:58:52.506Z,66.54
2018-12-11T14:01:15.690Z,66.76
2018-12-11T14:03:38.827Z,66.76
2018-12-11T14:06:01.941Z,66.17
2018-12-11T14:08:25.122Z,65.95
2018-12-11T14:10:48.317Z,65.39
2018-12-11T14:13:11.534Z,66.52
2018-12-11T14:15:34.680Z,66.70
2018-12-11T14:17:57.798Z,65.82
2018-12-11T14:20:20.980Z,65.07
2018-12-11T14:22:44.111Z,65.51
2018-12-11T14:25:07.526Z,66.77
2018-12-11T14:27:30.650Z,66.34
2018-12-11T14:29:53.762Z,66.15
2018-12-11T14:32:16.916Z,65.92
2018-12-11T14:34:40.062Z,66.40
2018-12-11T14:37:03.313Z,67.45
2018-12-11T14:39:26.421Z,67.78
2018-12-11T14:41:49.538Z,67.68
2018-12-11T14:44:12.735Z,66.92
2018-12-11T14:46:35.820Z,66.34
2018-12-11T14:48:59.387Z,66.54
2018-12-11T14:51:22.531Z,67.66
2018-12-11T14:53:45.681Z,67.12
2018-12-11T14:56:09.255Z,65.91
2018-12-11T14:58:32.385Z,65.60
2018-12-11T15:00:55.600Z,64.98
2018-12-11T15:03:19.158Z,67.92
2018-12-11T15:05:42.285Z,67.53
2018-12-11T15:08:05.381Z,66.47
2018-12-11T15:10:28.559Z,65.94
2018-12-11T15:12:51.837Z,67.14
2018-12-11T15:15:15.284Z,65.54
2018-12-11T15:17:38.419Z,65.51
2018-12-11T15:20:01.531Z,65.54
2018-12-11T15:22:24.680Z,65.13
2018-12-11T15:24:47.798Z,66.28
2018-12-11T15:27:11.323Z,67.03
2018-12-11T15:29:34.443Z,66.90
2018-12-11T15:31:57.563Z,66.67
2018-12-11T15:34:20.717Z,67.02
2018-12-11T15:36:43.900Z,67.22
2018-12-11T15:39:07.315Z,67.54
2018-12-11T15:41:30.452Z,66.65
2018-12-11T15:43:53.590Z,65.61
2018-12-11T15:46:16.748Z,66.75
2018-12-11T15:48:39.936Z,69.05
2018-12-11T15:51:03.103Z,66.77
2018-12-11T15:53:26.226Z,68.97
2018-12-11T15:55:49.318Z,68.42
2018-12-11T15:58:12.460Z,68.23
2018-12-11T16:00:35.594Z,67.43
2018-12-11T16:02:58.757Z,68.62
2018-12-11T16:05:21.899Z,70.92
2018-12-11T16:07:45.055Z,69.89
2018-12-11T16:10:08.281Z,69.79
2018-12-11T16:12:31.455Z,68.05
2018-12-11T16:14:54.606Z,68.80
2018-12-11T16:17:17.731Z,69.82
2018-12-11T16:19:40.863Z,69.53
2018-12-11T16:22:04.036Z,68.96
2018-12-11T16:24:27.181Z,69.71
2018-12-11T16:26:50.385Z,70.13
2018-12-11T16:29:13.514Z,69.10
2018-12-11T16:31:36.671Z,68.83
2018-12-11T16:33:59.928Z,68.66
2018-12-11T16:36:23.049Z,67.19
2018-12-11T16:38:46.161Z,67.86
2018-12-11T16:41:09.323Z,68.03
2018-12-11T16:43:32.461Z,69.60
2018-12-11T16:45:55.584Z,69.97
2018-12-11T16:48:18.751Z,68.98
2018-12-11T16:50:41.880Z,68.85
2018-12-11T16:53:05.011Z,70.54
2018-12-11T16:55:28.171Z,70.11
2018-12-11T16:57:51.292Z,69.34
2018-12-11T17:00:14.813Z,70.00
2018-12-11T17:02:37.953Z,70.35
2018-12-11T17:05:01.083Z,68.98
2018-12-11T17:07:24.589Z,68.99
2018-12-11T17:09:47.825Z,69.38
2018-12-11T17:12:11.817Z,70.87
2018-12-11T17:14:34.972Z,68.83
2018-12-11T17:16:58.117Z,67.80
2018-12-11T17:19:21.265Z,69.07
2018-12-11T17:21:47.058Z,68.35
2018-12-11T17:24:09.486Z,69.15
2018-12-11T17:26:32.619Z,70.08
2018-12-11T17:28:55.772Z,68.38
2018-12-11T17:31:18.896Z,67.72
2018-12-11T17:33:42.101Z,68.17
2018-12-11T17:36:05.191Z,67.95
2018-12-11T17:38:28.288Z,69.07
2018-12-11T17:40:51.467Z,68.20
2018-12-11T17:43:14.615Z,68.28
2018-12-11T17:45:37.770Z,68.10
2018-12-11T17:48:01.061Z,68.09
2018-12-11T17:50:24.202Z,67.88
2018-12-11T17:52:47.350Z,69.16
2018-12-11T17:55:10.466Z,68.00
2018-12-11T17:57:33.654Z,67.61
2018-12-11T17:59:56.800Z,68.23
2018-12-11T18:02:21.970Z,68.87
2018-12-11T18:04:45.108Z,69.29
2018-12-11T18:07:08.258Z,70.72
2018-12-11T18:09:36.446Z,69.23
2018-12-11T18:11:59.573Z,70.11
2018-12-11T18:14:22.703Z,69.44
2018-12-11T18:16:45.854Z,68.39
2018-12-11T18:19:08.967Z,68.24
2018-12-11T18:21:32.118Z,68.85
2018-12-11T18:23:55.251Z,67.87
2018-12-11T18:26:18.433Z,67.88
2018-12-11T18:28:41.577Z,68.44
2018-12-11T18:31:04.702Z,68.03
2018-12-11T18:33:27.849Z,69.15
2018-12-11T18:35:51.061Z,68.11
2018-12-11T18:38:14.230Z,68.46
2018-12-11T18:40:37.401Z,68.30
2018-12-11T18:43:00.531Z,68.80
2018-12-11T18:45:23.670Z,69.41
2018-12-11T18:47:49.940Z,69.18
2018-12-11T18:50:11.939Z,68.73
2018-12-11T18:52:35.075Z,69.61
2018-12-11T18:54:58.181Z,68.56
2018-12-11T18:57:21.424Z,68.93
2018-12-11T18:59:44.570Z,68.61
2018-12-11T19:02:07.743Z,70.11
2018-12-11T19:04:30.903Z,70.16
2018-12-11T19:06:54.057Z,69.36
2018-12-11T19:09:17.234Z,69.14
2018-12-11T19:14:09.680Z,69.49
2018-12-11T19:16:32.856Z,68.67
2018-12-11T19:18:56.045Z,69.66
2018-12-11T19:21:19.246Z,70.14
2018-12-11T19:23:45.209Z,69.22
2018-12-11T19:26:08.508Z,70.83
2018-12-11T19:28:31.639Z,70.21
2018-12-11T19:30:54.781Z,69.35
2018-12-11T19:33:17.966Z,69.84
2018-12-11T19:35:41.096Z,69.74
2018-12-11T19:38:04.528Z,69.54
2018-12-11T19:40:27.679Z,69.59
2018-12-11T19:42:50.859Z,68.70
2018-12-11T19:45:13.986Z,70.03
2018-12-11T19:47:37.103Z,71.27
2018-12-11T19:50:00.235Z,70.11
2018-12-11T19:52:23.752Z,70.38
2018-12-11T19:54:46.889Z,70.01
2018-12-11T19:57:09.991Z,69.96
2018-12-11T19:59:33.148Z,69.75
2018-12-11T20:01:56.281Z,69.97
2018-12-11T20:04:19.606Z,69.36
2018-12-11T20:06:42.748Z,69.12
2018-12-11T20:09:06.698Z,69.85
2018-12-11T20:11:29.831Z,69.45
2018-12-11T20:13:53.188Z,68.41
2018-12-11T20:16:16.466Z,70.09
2018-12-11T20:18:39.610Z,69.36
2018-12-11T20:21:03.135Z,69.16
2018-12-11T20:23:26.254Z,70.04
2018-12-11T20:25:49.396Z,70.06
2018-12-11T20:28:12.606Z,72.39
2018-12-11T20:30:35.746Z,70.70
2018-12-11T20:32:58.912Z,70.72
2018-12-11T20:35:22.068Z,69.70
2018-12-11T20:37:45.200Z,70.85
2018-12-11T20:40:08.510Z,70.33
2018-12-11T20:42:31.678Z,70.89
2018-12-11T20:44:54.827Z,69.84
2018-12-11T20:47:17.994Z,70.29
2018-12-11T20:49:41.154Z,71.27
2018-12-11T20:52:04.313Z,71.36
2018-12-11T20:54:27.427Z,71.35
2018-12-11T20:56:50.586Z,71.71
2018-12-11T20:59:13.702Z,71.68
2018-12-11T21:01:36.873Z,70.54
2018-12-11T21:04:00.035Z,70.25
2018-12-11T21:06:23.185Z,70.74
2018-12-11T21:08:46.289Z,70.16
2018-12-11T21:11:09.400Z,70.78
2018-12-11T21:13:32.850Z,70.00
2018-12-11T21:15:56.017Z,70.34
2018-12-11T21:18:19.140Z,70.88
2018-12-11T21:20:42.258Z,70.16
2018-12-11T21:23:05.441Z,69.30
2018-12-11T21:25:28.583Z,70.67
2018-12-11T21:27:51.716Z,70.40
2018-12-11T21:30:14.867Z,71.73
2018-12-11T21:32:38.034Z,69.60
2018-12-11T21:35:01.130Z,70.70
2018-12-11T21:37:24.303Z,69.82
2018-12-11T21:39:48.590Z,69.93
2018-12-11T21:42:11.737Z,69.70
2018-12-11T21:44:34.869Z,69.50
2018-12-11T21:46:57.980Z,71.38
2018-12-11T21:49:21.113Z,70.35
2018-12-11T21:51:44.257Z,70.27
2018-12-11T21:54:07.381Z,70.14
2018-12-11T21:56:30.550Z,69.71
2018-12-11T21:58:53.697Z,70.62
2018-12-11T22:01:16.818Z,70.81
2018-12-11T22:03:40.126Z,70.02
2018-12-11T22:06:03.752Z,69.71
2018-12-11T22:08:26.920Z,69.22
2018-12-11T22:10:50.060Z,68.88
2018-12-11T22:13:13.217Z,69.23
2018-12-11T22:15:36.340Z,69.71
2018-12-11T22:17:59.473Z,69.83
2018-12-11T22:20:22.562Z,69.04
2018-12-11T22:22:45.713Z,70.72
2018-12-11T22:25:08.832Z,71.38
2018-12-11T22:27:31.933Z,71.22
2018-12-11T22:29:55.051Z,71.06
2018-12-11T22:32:18.210Z,71.77
2018-12-11T22:34:41.321Z,70.81
2018-12-11T22:37:04.448Z,71.81
2018-12-11T22:39:27.583Z,72.14
2018-12-11T22:41:50.699Z,70.70
2018-12-11T22:44:13.837Z,71.18
2018-12-11T22:46:37.010Z,71.63
2018-12-11T22:49:00.115Z,71.85
2018-12-11T22:51:23.873Z,72.49
2018-12-11T22:53:47.015Z,70.57
2018-12-11T22:56:10.149Z,71.60
2018-12-11T22:58:34.653Z,71.35
2018-12-11T23:00:58.078Z,70.15
2018-12-11T23:03:21.271Z,70.85
2018-12-11T23:05:44.396Z,70.23
2018-12-11T23:08:07.509Z,71.59
2018-12-11T23:10:30.659Z,71.57
2018-12-11T23:12:53.809Z,70.51
2018-12-11T23:15:16.936Z,72.27
2018-12-11T23:17:40.074Z,71.58
2018-12-11T23:20:03.615Z,71.93
2018-12-11T23:22:26.719Z,70.60
2018-12-11T23:24:50.004Z,70.70
2018-12-11T23:27:13.143Z,70.98
2018-12-11T23:29:36.297Z,71.39
2018-12-11T23:31:59.479Z,71.26
2018-12-11T23:34:22.611Z,73.50
2018-12-11T23:36:45.737Z,72.67
2018-12-11T23:39:08.913Z,72.70
2018-12-11T23:41:32.007Z,72.85
2018-12-11T23:43:55.154Z,71.90
2018-12-11T23:46:18.274Z,71.35
2018-12-11T23:48:41.465Z,71.45
2018-12-11T23:51:04.585Z,71.07
2018-12-11T23:53:27.735Z,70.73
2018-12-11T23:55:50.847Z,70.52
2018-12-11T23:58:13.967Z,71.96
